createdAt,value
2023-04-12T00:00:39.806Z,8.70
2023-04-12T00:01:42.247Z,8.80
2023-04-12T00:02:44.906Z,8.80
2023-04-12T00:03:51.042Z,8.80
2023-04-12T00:04:55.863Z,8.80
2023-04-12T00:05:57.367Z,8.80
2023-04-12T00:07:01.181Z,8.80
2023-04-12T00:08:06.172Z,8.80
2023-04-12T00:09:08.789Z,8.80
2023-04-12T00:10:10.866Z,8.80
2023-04-12T00:11:12.767Z,8.70
2023-04-12T00:12:14.335Z,8.70
2023-04-12T00:13:15.868Z,8.70
2023-04-12T00:14:17.384Z,8.70
2023-04-12T00:15:19.290Z,8.70
2023-04-12T00:16:21.379Z,8.80
2023-04-12T00:17:22.897Z,8.80
2023-04-12T00:18:25.373Z,8.80
2023-04-12T00:19:27.658Z,8.80
2023-04-12T00:20:29.496Z,8.70
2023-04-12T00:21:31.526Z,8.70
2023-04-12T00:22:32.955Z,8.70
2023-04-12T00:23:34.513Z,8.70
2023-04-12T00:24:38.624Z,8.70
2023-04-12T00:25:40.161Z,8.80
2023-04-12T00:26:41.841Z,8.70
2023-04-12T00:27:43.241Z,8.70
2023-04-12T00:28:45.199Z,8.70
2023-04-12T00:29:46.753Z,8.70
2023-04-12T00:30:48.133Z,8.70
2023-04-12T00:31:49.575Z,8.70
2023-04-12T00:32:51.078Z,8.70
2023-04-12T00:33:52.853Z,8.60
2023-04-12T00:34:54.332Z,8.60
2023-04-12T00:35:55.719Z,8.60
2023-04-12T00:36:57.274Z,8.60
2023-04-12T00:37:58.866Z,8.60
2023-04-12T00:39:00.394Z,8.60
2023-04-12T00:40:02.450Z,8.60
2023-04-12T00:41:04.385Z,8.60
2023-04-12T00:42:06.018Z,8.60
2023-04-12T00:43:08.740Z,8.60
2023-04-12T00:44:10.785Z,8.60
2023-04-12T00:45:12.410Z,8.60
2023-04-12T00:46:13.925Z,8.60
2023-04-12T00:47:15.675Z,8.60
2023-04-12T00:48:17.642Z,8.60
2023-04-12T00:49:19.534Z,8.60
2023-04-12T00:50:21.289Z,8.70
2023-04-12T00:51:25.363Z,8.70
2023-04-12T00:52:28.190Z,8.70
2023-04-12T00:53:30.066Z,8.70
2023-04-12T00:54:33.241Z,8.70
2023-04-12T00:55:34.860Z,8.70
2023-04-12T00:56:38.374Z,8.70
2023-04-12T00:57:41.154Z,8.70
2023-04-12T00:58:43.152Z,8.70
2023-04-12T00:59:44.853Z,8.60
2023-04-12T01:00:50.449Z,8.70
2023-04-12T01:01:52.734Z,8.60
2023-04-12T01:02:54.907Z,8.70
2023-04-12T01:04:01.333Z,8.60
2023-04-12T01:05:05.607Z,8.60
2023-04-12T01:06:32.645Z,8.60
2023-04-12T01:07:54.398Z,8.50
2023-04-12T01:09:27.594Z,8.50
2023-04-12T01:10:34.814Z,8.50
2023-04-12T01:11:48.511Z,8.60
2023-04-12T01:13:16.243Z,8.70
2023-04-12T01:14:25.714Z,8.60
2023-04-12T01:15:31.358Z,8.60
2023-04-12T01:16:47.727Z,8.60
2023-04-12T01:18:25.729Z,8.50
2023-04-12T01:19:53.745Z,8.50
2023-04-12T01:21:08.695Z,8.50
2023-04-12T01:22:23.170Z,8.40
2023-04-12T01:23:28.501Z,8.40
2023-04-12T01:24:47.040Z,8.50
2023-04-12T01:25:48.454Z,8.50
2023-04-12T01:26:51.848Z,8.50
2023-04-12T01:27:57.712Z,8.50
2023-04-12T01:29:01.046Z,8.60
2023-04-12T01:30:03.888Z,8.50
2023-04-12T01:31:07.128Z,8.50
2023-04-12T01:32:12.432Z,8.50
2023-04-12T01:33:16.334Z,8.50
2023-04-12T01:34:18.409Z,8.50
2023-04-12T01:35:24.321Z,8.50
2023-04-12T01:36:28.101Z,8.50
2023-04-12T01:37:30.917Z,8.60
2023-04-12T01:38:34.160Z,8.60
2023-04-12T01:39:35.936Z,8.60
2023-04-12T01:40:40.601Z,8.60
2023-04-12T01:41:45.363Z,8.60
2023-04-12T01:42:46.783Z,8.60
2023-04-12T01:43:48.718Z,8.60
2023-04-12T01:44:51.283Z,8.60
2023-04-12T01:45:52.684Z,8.60
2023-04-12T01:46:54.194Z,8.60
2023-04-12T01:47:55.795Z,8.60
2023-04-12T01:48:58.001Z,8.60
2023-04-12T01:50:21.118Z,8.60
2023-04-12T01:51:44.184Z,8.50
2023-04-12T01:53:03.770Z,8.60
2023-04-12T01:54:17.176Z,8.60
2023-04-12T01:55:21.976Z,8.60
2023-04-12T01:56:27.508Z,8.60
2023-04-12T01:57:29.353Z,8.60
2023-04-12T01:58:31.757Z,8.60
2023-04-12T01:59:44.761Z,8.60
2023-04-12T02:00:46.903Z,8.70
2023-04-12T02:01:49.088Z,8.70
2023-04-12T02:02:50.914Z,8.70
2023-04-12T02:03:53.584Z,8.70
2023-04-12T02:04:56.619Z,8.60
2023-04-12T02:05:59.821Z,8.60
2023-04-12T02:07:01.893Z,8.70
2023-04-12T02:08:04.634Z,8.60
2023-04-12T02:09:06.510Z,8.60
2023-04-12T02:10:12.768Z,8.60
2023-04-12T02:11:17.712Z,8.60
2023-04-12T02:12:19.229Z,8.60
2023-04-12T02:13:20.861Z,8.60
2023-04-12T02:14:22.740Z,8.60
2023-04-12T02:15:24.288Z,8.60
2023-04-12T02:16:29.383Z,8.60
2023-04-12T02:17:31.233Z,8.70
2023-04-12T02:18:33.052Z,8.70
2023-04-12T02:19:34.958Z,8.70
2023-04-12T02:20:36.429Z,8.70
2023-04-12T02:21:45.533Z,8.70
2023-04-12T02:22:47.271Z,8.70
2023-04-12T02:23:50.303Z,8.70
2023-04-12T02:24:51.982Z,8.70
2023-04-12T02:25:53.573Z,8.70
2023-04-12T02:27:57.287Z,8.70
2023-04-12T02:28:59.579Z,8.70
2023-04-12T02:30:00.952Z,8.70
2023-04-12T02:31:04.374Z,8.70
2023-04-12T02:32:06.939Z,8.70
2023-04-12T02:33:09.611Z,8.80
2023-04-12T02:34:13.545Z,8.80
2023-04-12T02:35:20.200Z,8.70
2023-04-12T02:36:26.891Z,8.70
2023-04-12T02:37:29.267Z,8.70
2023-04-12T02:38:31.292Z,8.80
2023-04-12T02:39:37.207Z,8.80
2023-04-12T02:40:43.657Z,8.80
2023-04-12T02:41:49.321Z,8.80
2023-04-12T02:42:51.405Z,8.80
2023-04-12T02:43:53.163Z,8.80
2023-04-12T02:44:55.442Z,8.70
2023-04-12T02:45:57.153Z,8.80
2023-04-12T02:46:59.233Z,8.80
2023-04-12T02:48:01.237Z,8.70
2023-04-12T02:49:04.261Z,8.70
2023-04-12T02:50:11.848Z,8.70
2023-04-12T02:51:23.982Z,8.60
2023-04-12T02:52:25.806Z,8.70
2023-04-12T02:53:53.462Z,8.70
2023-04-12T02:54:58.840Z,8.70
2023-04-12T02:56:01.311Z,8.70
2023-04-12T02:57:04.589Z,8.70
2023-04-12T02:58:10.084Z,8.70
2023-04-12T02:59:17.841Z,8.70
2023-04-12T03:00:45.962Z,8.70
2023-04-12T03:01:50.850Z,8.70
2023-04-12T03:03:03.440Z,8.70
2023-04-12T03:04:07.367Z,8.70
2023-04-12T03:05:17.864Z,8.70
2023-04-12T03:06:19.808Z,8.80
2023-04-12T03:07:21.963Z,8.90
2023-04-12T03:08:25.998Z,8.90
2023-04-12T03:09:32.477Z,8.90
2023-04-12T03:10:34.008Z,8.90
2023-04-12T03:11:37.310Z,9.00
2023-04-12T03:12:40.923Z,8.90
2023-04-12T03:13:49.186Z,8.90
2023-04-12T03:14:52.147Z,8.90
2023-04-12T03:15:59.907Z,8.90
2023-04-12T03:17:08.310Z,8.80
2023-04-12T03:18:11.493Z,8.90
2023-04-12T03:19:22.353Z,8.90
2023-04-12T03:20:29.961Z,8.90
2023-04-12T03:21:43.322Z,8.90
2023-04-12T03:22:45.741Z,8.80
2023-04-12T03:23:47.425Z,8.90
2023-04-12T03:24:52.721Z,8.90
2023-04-12T03:25:56.099Z,8.90
2023-04-12T03:27:04.899Z,8.90
2023-04-12T03:28:09.154Z,8.90
2023-04-12T03:29:23.213Z,8.90
2023-04-12T03:30:26.997Z,8.90
2023-04-12T03:31:31.322Z,9.00
2023-04-12T03:32:39.636Z,9.00
2023-04-12T03:33:43.267Z,9.00
2023-04-12T03:34:55.370Z,9.00
2023-04-12T03:35:59.662Z,9.00
2023-04-12T03:37:02.761Z,9.00
2023-04-12T03:38:12.521Z,8.90
2023-04-12T03:39:16.754Z,9.00
2023-04-12T03:40:20.366Z,9.00
2023-04-12T03:41:30.642Z,9.00
2023-04-12T03:42:34.376Z,8.90
2023-04-12T03:43:45.288Z,9.00
2023-04-12T03:44:52.435Z,8.90
2023-04-12T03:45:56.222Z,9.00
2023-04-12T03:47:00.415Z,9.00
2023-04-12T03:48:07.902Z,8.90
2023-04-12T03:49:17.248Z,8.90
2023-04-12T03:50:22.655Z,8.90
2023-04-12T03:51:30.735Z,8.90
2023-04-12T03:52:37.862Z,9.00
2023-04-12T03:53:41.705Z,9.00
2023-04-12T03:54:47.486Z,8.90
2023-04-12T03:55:56.563Z,9.00
2023-04-12T03:57:02.342Z,9.00
2023-04-12T03:58:22.680Z,9.00
2023-04-12T03:59:24.484Z,9.00
2023-04-12T04:00:26.027Z,9.00
2023-04-12T04:01:54.391Z,9.00
2023-04-12T04:02:58.712Z,9.00
2023-04-12T04:04:00.917Z,9.10
2023-04-12T04:05:06.062Z,9.00
2023-04-12T04:06:08.499Z,9.00
2023-04-12T04:07:11.319Z,8.90
2023-04-12T04:08:18.907Z,9.00
2023-04-12T04:09:30.403Z,9.00
2023-04-12T04:10:31.942Z,9.00
2023-04-12T04:11:33.716Z,8.90
2023-04-12T04:12:40.878Z,8.90
2023-04-12T04:13:46.707Z,9.00
2023-04-12T04:14:53.430Z,9.00
2023-04-12T04:16:10.404Z,9.00
2023-04-12T04:17:13.925Z,9.00
2023-04-12T04:18:16.190Z,9.00
2023-04-12T04:19:17.577Z,9.00
2023-04-12T04:20:21.675Z,9.10
2023-04-12T04:21:26.584Z,9.00
2023-04-12T04:22:32.556Z,9.00
2023-04-12T04:23:39.349Z,9.00
2023-04-12T04:24:43.227Z,9.00
2023-04-12T04:25:45.329Z,9.00
2023-04-12T04:26:50.558Z,9.00
2023-04-12T04:27:59.562Z,9.10
2023-04-12T04:29:05.120Z,9.10
2023-04-12T04:30:13.933Z,9.10
2023-04-12T04:31:19.156Z,9.00
2023-04-12T04:32:25.210Z,9.00
2023-04-12T04:33:31.631Z,9.00
2023-04-12T04:34:37.032Z,9.00
2023-04-12T04:35:44.530Z,9.00
2023-04-12T04:37:06.701Z,9.00
2023-04-12T04:38:08.996Z,9.00
2023-04-12T04:39:11.659Z,9.00
2023-04-12T04:40:15.322Z,9.00
2023-04-12T04:41:17.608Z,9.00
2023-04-12T04:42:25.421Z,9.00
2023-04-12T04:43:35.254Z,9.00
2023-04-12T04:44:37.671Z,9.00
2023-04-12T04:45:42.909Z,9.10
2023-04-12T04:46:44.700Z,9.10
2023-04-12T04:47:46.647Z,9.10
2023-04-12T04:48:49.358Z,9.10
2023-04-12T04:49:50.759Z,9.10
2023-04-12T04:50:57.621Z,9.10
2023-04-12T04:51:59.065Z,9.10
2023-04-12T04:53:01.100Z,9.10
2023-04-12T04:54:05.875Z,9.10
2023-04-12T04:55:11.433Z,9.10
2023-04-12T04:56:14.716Z,9.10
2023-04-12T04:57:16.767Z,9.10
2023-04-12T04:58:19.000Z,9.10
2023-04-12T04:59:20.598Z,9.10
2023-04-12T05:00:22.045Z,9.10
2023-04-12T05:01:29.392Z,9.10
2023-04-12T05:02:33.604Z,9.10
2023-04-12T05:03:35.361Z,9.10
2023-04-12T05:04:37.825Z,9.10
2023-04-12T05:05:39.508Z,9.10
2023-04-12T05:06:45.983Z,9.10
2023-04-12T05:07:49.697Z,9.20
2023-04-12T05:08:52.521Z,9.30
2023-04-12T05:09:55.753Z,9.30
2023-04-12T05:10:57.446Z,9.30
2023-04-12T05:12:03.432Z,9.30
2023-04-12T05:13:06.540Z,9.30
2023-04-12T05:14:08.318Z,9.40
2023-04-12T05:15:12.389Z,9.40
2023-04-12T05:16:15.565Z,9.40
2023-04-12T05:17:17.038Z,9.30
2023-04-12T05:18:18.418Z,9.30
2023-04-12T05:19:21.094Z,9.30
2023-04-12T05:20:22.955Z,9.30
2023-04-12T05:21:24.704Z,9.30
2023-04-12T05:22:29.492Z,9.30
2023-04-12T05:23:38.242Z,9.30
2023-04-12T05:24:40.828Z,9.30
2023-04-12T05:25:47.131Z,9.40
2023-04-12T05:26:49.273Z,9.30
2023-04-12T05:27:52.190Z,9.30
2023-04-12T05:28:55.166Z,9.30
2023-04-12T05:29:57.660Z,9.40
2023-04-12T05:31:00.944Z,9.40
2023-04-12T05:32:09.395Z,9.40
2023-04-12T05:33:12.202Z,9.40
2023-04-12T05:34:19.309Z,9.50
2023-04-12T05:35:27.432Z,9.40
2023-04-12T05:36:34.741Z,9.50
2023-04-12T05:37:38.183Z,9.40
2023-04-12T05:38:39.860Z,9.40
2023-04-12T05:39:46.220Z,9.40
2023-04-12T05:40:52.777Z,9.40
2023-04-12T05:41:57.588Z,9.60
2023-04-12T05:43:00.819Z,9.60
2023-04-12T05:44:05.695Z,9.50
2023-04-12T05:45:08.120Z,9.50
2023-04-12T05:46:11.728Z,9.50
2023-04-12T05:47:13.562Z,9.60
2023-04-12T05:48:15.692Z,9.60
2023-04-12T05:49:17.220Z,9.60
2023-04-12T05:50:20.254Z,9.60
2023-04-12T05:51:34.020Z,9.70
2023-04-12T05:52:39.939Z,9.70
2023-04-12T05:53:42.820Z,9.80
2023-04-12T05:54:44.300Z,9.80
2023-04-12T05:55:52.004Z,9.80
2023-04-12T05:56:54.955Z,9.80
2023-04-12T05:57:58.532Z,9.80
2023-04-12T05:59:02.567Z,9.90
2023-04-12T06:00:07.731Z,9.80
2023-04-12T06:01:15.046Z,9.90
2023-04-12T06:02:16.568Z,9.90
2023-04-12T06:03:18.249Z,9.90
2023-04-12T06:04:20.148Z,10.00
2023-04-12T06:05:22.840Z,10.00
2023-04-12T06:06:24.631Z,10.00
2023-04-12T06:07:26.344Z,10.00
2023-04-12T06:08:29.576Z,10.00
2023-04-12T06:09:31.351Z,10.00
2023-04-12T06:10:33.401Z,10.10
2023-04-12T06:11:35.150Z,10.10
2023-04-12T06:12:37.160Z,10.10
2023-04-12T06:13:39.318Z,10.10
2023-04-12T06:14:41.170Z,10.20
2023-04-12T06:15:43.870Z,10.20
2023-04-12T06:16:46.060Z,10.20
2023-04-12T06:17:48.676Z,10.20
2023-04-12T06:18:50.442Z,10.20
2023-04-12T06:19:52.219Z,10.20
2023-04-12T06:20:54.205Z,10.20
2023-04-12T06:21:56.804Z,10.30
2023-04-12T06:22:58.701Z,10.40
2023-04-12T06:24:00.463Z,10.30
2023-04-12T06:25:02.891Z,10.40
2023-04-12T06:26:04.489Z,10.40
2023-04-12T06:27:05.972Z,10.40
2023-04-12T06:28:07.434Z,10.40
2023-04-12T06:29:17.164Z,10.50
2023-04-12T06:30:20.941Z,10.50
2023-04-12T06:31:25.660Z,10.50
2023-04-12T06:32:27.537Z,10.50
2023-04-12T06:33:29.773Z,10.60
2023-04-12T06:34:34.053Z,10.60
2023-04-12T06:35:39.556Z,10.70
2023-04-12T06:36:42.100Z,10.70
2023-04-12T06:37:43.931Z,10.70
2023-04-12T06:38:45.441Z,10.70
2023-04-12T06:39:46.763Z,10.70
2023-04-12T06:40:48.624Z,10.70
2023-04-12T06:41:50.541Z,10.70
2023-04-12T06:42:55.255Z,10.80
2023-04-12T06:43:57.892Z,10.80
2023-04-12T06:44:59.273Z,10.80
2023-04-12T06:46:02.935Z,10.80
2023-04-12T06:47:04.959Z,10.90
2023-04-12T06:48:06.773Z,10.90
2023-04-12T06:49:08.678Z,10.90
2023-04-12T06:50:10.703Z,10.90
2023-04-12T06:51:12.072Z,11.00
2023-04-12T06:52:13.504Z,11.00
2023-04-12T06:53:14.980Z,11.00
2023-04-12T06:54:16.792Z,11.10
2023-04-12T06:55:18.402Z,11.20
2023-04-12T06:56:19.926Z,11.20
2023-04-12T06:57:21.383Z,11.20
2023-04-12T06:58:23.300Z,11.20
2023-04-12T06:59:24.805Z,11.30
2023-04-12T07:00:26.405Z,11.30
2023-04-12T07:01:27.975Z,11.40
2023-04-12T07:02:29.411Z,11.40
2023-04-12T07:03:33.650Z,11.40
2023-04-12T07:04:35.266Z,11.40
2023-04-12T07:05:39.994Z,11.40
2023-04-12T07:06:42.564Z,11.50
2023-04-12T07:07:45.132Z,11.60
2023-04-12T07:08:46.583Z,11.60
2023-04-12T07:09:48.220Z,11.60
2023-04-12T07:10:54.306Z,11.70
2023-04-12T07:11:55.636Z,11.70
2023-04-12T07:12:59.117Z,11.70
2023-04-12T07:14:00.926Z,11.80
2023-04-12T07:15:02.350Z,11.90
2023-04-12T07:16:04.006Z,11.90
2023-04-12T07:17:06.034Z,12.00
2023-04-12T07:18:07.450Z,12.00
2023-04-12T07:19:09.346Z,12.10
2023-04-12T07:20:11.543Z,12.20
2023-04-12T07:21:14.371Z,12.20
2023-04-12T07:22:15.955Z,12.30
2023-04-12T07:23:17.370Z,12.30
2023-04-12T07:24:18.961Z,12.40
2023-04-12T07:25:20.586Z,12.30
2023-04-12T07:26:22.227Z,12.30
2023-04-12T07:27:24.167Z,12.40
2023-04-12T07:28:25.714Z,12.40
2023-04-12T07:29:27.364Z,12.50
2023-04-12T07:30:28.860Z,12.60
2023-04-12T07:31:33.308Z,12.70
2023-04-12T07:32:35.755Z,12.70
2023-04-12T07:33:39.366Z,12.80
2023-04-12T07:34:42.545Z,12.90
2023-04-12T07:35:44.062Z,12.90
2023-04-12T07:36:46.080Z,12.90
2023-04-12T07:37:47.701Z,13.10
2023-04-12T07:38:51.460Z,13.20
2023-04-12T07:39:53.440Z,13.20
2023-04-12T07:40:56.104Z,13.30
2023-04-12T07:41:57.752Z,13.40
2023-04-12T07:42:59.181Z,13.40
2023-04-12T07:44:01.020Z,13.50
2023-04-12T07:45:02.493Z,13.50
2023-04-12T07:46:08.923Z,13.50
2023-04-12T07:47:10.538Z,13.60
2023-04-12T07:48:12.360Z,13.60
2023-04-12T07:49:13.848Z,13.60
2023-04-12T07:50:15.528Z,13.70
2023-04-12T07:51:17.169Z,13.70
2023-04-12T07:52:18.552Z,13.70
2023-04-12T07:53:26.457Z,13.60
2023-04-12T07:54:28.597Z,13.70
2023-04-12T07:55:30.028Z,13.60
2023-04-12T07:56:35.330Z,13.70
2023-04-12T07:57:36.707Z,13.60
2023-04-12T07:58:38.157Z,13.70
2023-04-12T07:59:39.563Z,13.70
2023-04-12T08:00:40.942Z,13.70
2023-04-12T08:01:42.774Z,13.70
2023-04-12T08:02:44.431Z,13.80
2023-04-12T08:03:47.518Z,13.80
2023-04-12T08:04:49.118Z,13.80
2023-04-12T08:05:53.717Z,13.80
2023-04-12T08:06:55.882Z,13.90
2023-04-12T08:07:57.481Z,13.80
2023-04-12T08:08:58.868Z,13.90
2023-04-12T08:10:00.258Z,13.90
2023-04-12T08:12:27.994Z,14.00
2023-04-12T08:13:30.095Z,13.90
2023-04-12T08:14:31.582Z,13.90
2023-04-12T08:15:33.445Z,13.90
2023-04-12T08:16:34.978Z,13.80
2023-04-12T08:17:36.462Z,13.80
2023-04-12T08:18:38.168Z,13.80
2023-04-12T08:19:39.922Z,13.80
2023-04-12T08:20:41.410Z,13.80
2023-04-12T08:21:42.898Z,13.90
2023-04-12T08:22:46.164Z,13.90
2023-04-12T08:23:47.791Z,13.90
2023-04-12T08:24:49.952Z,13.80
2023-04-12T08:25:52.749Z,13.70
2023-04-12T08:26:54.097Z,13.70
2023-04-12T08:27:55.840Z,13.70
2023-04-12T08:28:58.578Z,13.70
2023-04-12T08:30:00.538Z,13.80
2023-04-12T08:31:03.369Z,13.80
2023-04-12T08:32:05.557Z,13.80
2023-04-12T08:33:06.983Z,13.70
2023-04-12T08:34:08.719Z,13.70
2023-04-12T08:35:11.302Z,13.80
2023-04-12T08:36:12.884Z,13.70
2023-04-12T08:37:14.384Z,13.70
2023-04-12T08:38:16.451Z,13.80
2023-04-12T08:39:17.865Z,13.60
2023-04-12T08:40:19.481Z,13.70
2023-04-12T08:41:21.088Z,13.70
2023-04-12T08:42:22.597Z,13.80
2023-04-12T08:43:28.179Z,13.60
2023-04-12T08:44:39.048Z,13.60
2023-04-12T08:45:41.644Z,13.60
2023-04-12T08:46:44.166Z,13.50
2023-04-12T08:48:11.562Z,13.40
2023-04-12T08:49:13.319Z,13.30
2023-04-12T08:50:14.946Z,13.30
2023-04-12T08:51:21.309Z,13.20
2023-04-12T08:52:22.733Z,13.20
2023-04-12T08:53:24.627Z,13.10
2023-04-12T08:54:27.382Z,13.10
2023-04-12T08:55:28.937Z,13.10
2023-04-12T08:56:31.617Z,13.10
2023-04-12T08:57:35.595Z,13.10
2023-04-12T08:58:44.844Z,13.00
2023-04-12T08:59:49.427Z,12.90
2023-04-12T09:00:51.816Z,12.70
2023-04-12T09:01:55.153Z,12.70
2023-04-12T09:02:57.169Z,12.70
2023-04-12T09:03:59.263Z,12.70
2023-04-12T09:05:01.837Z,12.70
2023-04-12T09:06:03.906Z,12.70
2023-04-12T09:07:05.592Z,12.50
2023-04-12T09:08:07.815Z,12.50
2023-04-12T09:09:09.308Z,12.50
2023-04-12T09:10:10.831Z,12.50
2023-04-12T09:11:23.603Z,12.40
2023-04-12T09:12:27.433Z,12.30
2023-04-12T09:13:36.950Z,12.40
2023-04-12T09:14:39.801Z,12.30
2023-04-12T09:15:50.785Z,12.30
2023-04-12T09:16:52.740Z,12.20
2023-04-12T09:18:11.619Z,12.20
2023-04-12T09:19:13.235Z,12.20
2023-04-12T09:20:17.942Z,12.20
2023-04-12T09:21:19.427Z,12.20
2023-04-12T09:22:36.385Z,12.20
2023-04-12T09:23:37.925Z,12.30
2023-04-12T09:24:53.122Z,12.20
2023-04-12T09:25:54.836Z,12.20
2023-04-12T09:27:03.841Z,12.30
2023-04-12T09:28:19.526Z,12.20
2023-04-12T09:29:26.801Z,12.10
2023-04-12T09:30:28.221Z,12.10
2023-04-12T09:31:30.092Z,12.10
2023-04-12T09:32:31.753Z,12.10
2023-04-12T09:33:37.821Z,12.10
2023-04-12T09:34:54.380Z,12.00
2023-04-12T09:36:01.426Z,11.90
2023-04-12T09:37:17.201Z,12.00
2023-04-12T09:38:18.680Z,11.90
2023-04-12T09:39:20.400Z,11.80
2023-04-12T09:40:25.508Z,11.80
2023-04-12T09:41:28.707Z,11.80
2023-04-12T09:42:33.943Z,11.80
2023-04-12T09:43:40.613Z,11.80
2023-04-12T09:44:42.315Z,11.70
2023-04-12T09:45:44.017Z,11.80
2023-04-12T09:46:52.004Z,11.70
2023-04-12T09:47:55.418Z,11.70
2023-04-12T09:49:00.179Z,11.70
2023-04-12T09:50:04.533Z,11.70
2023-04-12T09:51:09.502Z,11.70
2023-04-12T09:52:13.049Z,11.60
2023-04-12T09:53:18.774Z,11.70
2023-04-12T09:54:20.666Z,11.70
2023-04-12T09:55:25.579Z,11.70
2023-04-12T09:56:32.596Z,11.70
2023-04-12T09:57:34.247Z,11.70
2023-04-12T09:58:39.043Z,11.60
2023-04-12T09:59:41.772Z,11.60
2023-04-12T10:00:44.190Z,11.60
2023-04-12T10:01:47.072Z,11.70
2023-04-12T10:02:53.670Z,11.70
2023-04-12T10:03:56.395Z,11.70
2023-04-12T10:04:58.763Z,11.70
2023-04-12T10:06:00.377Z,11.70
2023-04-12T10:07:02.324Z,11.80
2023-04-12T10:08:05.766Z,11.80
2023-04-12T10:09:08.880Z,11.80
2023-04-12T10:10:12.932Z,11.90
2023-04-12T10:11:14.691Z,11.90
2023-04-12T10:12:16.853Z,12.00
2023-04-12T10:13:19.492Z,12.10
2023-04-12T10:14:22.502Z,12.10
2023-04-12T10:15:25.738Z,12.10
2023-04-12T10:16:35.482Z,12.10
2023-04-12T10:17:37.254Z,12.10
2023-04-12T10:18:38.966Z,12.20
2023-04-12T10:19:40.778Z,12.30
2023-04-12T10:20:42.943Z,12.40
2023-04-12T10:21:49.449Z,12.40
2023-04-12T10:22:52.565Z,12.50
2023-04-12T10:23:58.555Z,12.60
2023-04-12T10:25:00.387Z,12.60
2023-04-12T10:26:04.670Z,12.60
2023-04-12T10:27:08.735Z,12.70
2023-04-12T10:28:19.322Z,12.70
2023-04-12T10:29:32.157Z,12.80
2023-04-12T10:30:33.850Z,12.80
2023-04-12T10:31:35.610Z,12.80
2023-04-12T10:32:37.648Z,12.80
2023-04-12T10:33:39.087Z,12.90
2023-04-12T10:34:42.868Z,12.90
2023-04-12T10:36:00.864Z,12.90
2023-04-12T10:37:02.837Z,12.90
2023-04-12T10:38:06.220Z,13.00
2023-04-12T10:39:11.210Z,13.00
2023-04-12T10:40:19.672Z,13.00
2023-04-12T10:41:22.498Z,13.00
2023-04-12T10:42:28.504Z,13.00
2023-04-12T10:43:32.783Z,12.90
2023-04-12T10:44:34.193Z,13.00
2023-04-12T10:45:36.819Z,13.00
2023-04-12T10:46:39.575Z,13.10
2023-04-12T10:47:53.615Z,13.00
2023-04-12T10:48:55.672Z,13.00
2023-04-12T10:50:26.042Z,13.10
2023-04-12T10:51:33.312Z,13.10
2023-04-12T10:53:08.897Z,13.10
2023-04-12T10:54:19.490Z,13.10
2023-04-12T10:55:32.672Z,13.10
2023-04-12T10:56:42.222Z,13.20
2023-04-12T10:57:49.989Z,13.20
2023-04-12T10:58:53.446Z,13.30
2023-04-12T10:59:57.447Z,13.30
2023-04-12T11:00:59.351Z,13.30
2023-04-12T11:02:11.724Z,13.40
2023-04-12T11:03:15.844Z,13.50
2023-04-12T11:04:25.185Z,13.50
2023-04-12T11:06:09.233Z,13.70
2023-04-12T11:07:41.940Z,13.80
2023-04-12T11:09:33.581Z,13.90
2023-04-12T11:10:35.406Z,14.10
2023-04-12T11:11:37.058Z,14.10
2023-04-12T11:12:39.485Z,14.30
2023-04-12T11:13:42.138Z,14.30
2023-04-12T11:14:49.036Z,14.40
2023-04-12T11:16:01.381Z,14.50
2023-04-12T11:17:06.770Z,14.50
2023-04-12T11:18:08.608Z,14.70
2023-04-12T11:19:11.264Z,14.70
2023-04-12T11:20:13.598Z,14.70
2023-04-12T11:21:15.548Z,14.70
2023-04-12T11:22:18.998Z,14.80
2023-04-12T11:23:21.906Z,14.70
2023-04-12T11:24:24.580Z,14.80
2023-04-12T11:25:26.538Z,14.90
2023-04-12T11:26:31.270Z,14.90
2023-04-12T11:27:33.057Z,15.00
2023-04-12T11:28:35.477Z,15.10
2023-04-12T11:29:37.118Z,15.10
2023-04-12T11:30:57.995Z,15.10
2023-04-12T11:31:59.729Z,15.20
2023-04-12T11:33:01.160Z,15.20
2023-04-12T11:34:02.901Z,15.20
2023-04-12T11:35:04.561Z,15.20
2023-04-12T11:36:13.340Z,15.20
2023-04-12T11:37:15.164Z,15.20
2023-04-12T11:38:17.266Z,15.20
2023-04-12T11:39:19.975Z,15.30
2023-04-12T11:40:22.838Z,15.30
2023-04-12T11:41:24.254Z,15.30
2023-04-12T11:42:28.246Z,15.30
2023-04-12T11:43:30.202Z,15.40
2023-04-12T11:44:44.149Z,15.40
2023-04-12T11:46:03.357Z,15.50
2023-04-12T11:47:04.983Z,15.50
2023-04-12T11:48:09.748Z,15.50
2023-04-12T11:49:16.072Z,15.70
2023-04-12T11:50:29.755Z,15.70
2023-04-12T11:51:33.023Z,15.90
2023-04-12T11:52:34.834Z,16.00
2023-04-12T11:53:36.277Z,16.00
2023-04-12T11:54:37.707Z,16.10
2023-04-12T11:55:39.486Z,16.20
2023-04-12T11:56:42.175Z,16.20
2023-04-12T11:57:43.677Z,16.20
2023-04-12T11:58:47.880Z,16.30
2023-04-12T11:59:50.260Z,16.40
2023-04-12T12:00:52.189Z,16.50
2023-04-12T12:01:54.742Z,16.50
2023-04-12T12:04:06.261Z,16.60
2023-04-12T12:05:09.086Z,16.60
2023-04-12T12:06:11.442Z,16.70
2023-04-12T12:07:15.685Z,16.60
2023-04-12T12:08:18.836Z,16.60
2023-04-12T12:09:21.271Z,16.60
2023-04-12T12:10:40.086Z,16.50
2023-04-12T12:11:44.549Z,16.40
2023-04-12T12:12:48.247Z,16.30
2023-04-12T12:13:52.738Z,16.40
2023-04-12T12:15:00.201Z,16.20
2023-04-12T12:16:01.822Z,16.20
2023-04-12T12:17:14.241Z,16.10
2023-04-12T12:18:15.665Z,16.00
2023-04-12T12:19:32.822Z,16.00
2023-04-12T12:20:40.409Z,16.00
2023-04-12T12:21:41.769Z,15.90
2023-04-12T12:22:46.770Z,15.90
2023-04-12T12:23:48.873Z,15.80
2023-04-12T12:24:59.240Z,15.70
2023-04-12T12:26:17.864Z,15.70
2023-04-12T12:27:44.200Z,15.70
2023-04-12T12:28:50.931Z,15.70
2023-04-12T12:29:54.434Z,15.60
2023-04-12T12:30:57.567Z,15.60
2023-04-12T12:32:01.570Z,15.70
2023-04-12T12:33:03.100Z,15.80
2023-04-12T12:34:08.381Z,15.80
2023-04-12T12:35:13.636Z,15.90
2023-04-12T12:36:20.797Z,15.80
2023-04-12T12:37:27.441Z,15.90
2023-04-12T12:38:39.278Z,16.00
2023-04-12T12:40:21.680Z,16.10
2023-04-12T12:41:24.846Z,16.20
2023-04-12T12:42:26.785Z,16.20
2023-04-12T12:43:28.453Z,16.20
2023-04-12T12:44:30.303Z,16.20
2023-04-12T12:45:33.798Z,16.20
2023-04-12T12:47:55.743Z,16.20
2023-04-12T12:48:57.860Z,16.10
2023-04-12T12:49:59.221Z,16.20
2023-04-12T12:51:00.892Z,16.20
2023-04-12T12:52:02.481Z,16.20
2023-04-12T12:53:05.624Z,16.20
2023-04-12T12:54:07.670Z,16.40
2023-04-12T12:55:09.865Z,16.50
2023-04-12T12:56:12.333Z,16.50
2023-04-12T12:57:13.984Z,16.60
2023-04-12T12:58:15.393Z,16.60
2023-04-12T12:59:16.753Z,16.50
2023-04-12T13:00:20.178Z,16.60
2023-04-12T13:01:22.049Z,16.50
2023-04-12T13:02:23.575Z,16.60
2023-04-12T13:03:25.229Z,16.60
2023-04-12T13:04:27.155Z,16.60
2023-04-12T13:05:28.718Z,16.70
2023-04-12T13:06:32.003Z,16.70
2023-04-12T13:07:34.338Z,16.60
2023-04-12T13:08:37.131Z,16.60
2023-04-12T13:09:38.833Z,16.70
2023-04-12T13:10:40.325Z,16.70
2023-04-12T13:11:41.730Z,16.70
2023-04-12T13:12:43.501Z,16.70
2023-04-12T13:13:45.058Z,16.70
2023-04-12T13:14:46.454Z,16.60
2023-04-12T13:15:47.884Z,16.60
2023-04-12T13:16:49.626Z,16.60
2023-04-12T13:17:54.756Z,16.60
2023-04-12T13:18:57.094Z,16.50
2023-04-12T13:19:59.372Z,16.50
2023-04-12T13:21:01.115Z,16.50
2023-04-12T13:22:02.566Z,16.30
2023-04-12T13:23:04.033Z,16.30
2023-04-12T13:24:05.975Z,16.20
2023-04-12T13:25:08.009Z,16.30
2023-04-12T13:26:09.362Z,16.20
2023-04-12T13:27:15.147Z,16.10
2023-04-12T13:28:20.711Z,16.20
2023-04-12T13:29:22.039Z,16.10
2023-04-12T13:30:23.472Z,16.10
2023-04-12T13:31:25.316Z,16.20
2023-04-12T13:32:27.419Z,16.10
2023-04-12T13:33:29.105Z,16.10
2023-04-12T13:34:31.542Z,16.10
2023-04-12T13:35:32.901Z,16.10
2023-04-12T13:36:34.305Z,16.00
2023-04-12T13:37:35.924Z,16.00
2023-04-12T13:38:37.322Z,16.00
2023-04-12T13:39:40.189Z,16.00
2023-04-12T13:40:41.676Z,16.00
2023-04-12T13:41:43.198Z,16.00
2023-04-12T13:42:44.845Z,16.00
2023-04-12T13:43:46.225Z,16.00
2023-04-12T13:44:48.662Z,16.00
2023-04-12T13:45:50.826Z,15.90
2023-04-12T13:46:52.293Z,15.90
2023-04-12T13:47:53.883Z,15.90
2023-04-12T13:48:56.076Z,15.90
2023-04-12T13:49:58.068Z,15.90
2023-04-12T13:50:59.799Z,15.90
2023-04-12T13:52:02.763Z,15.90
2023-04-12T13:53:04.145Z,15.80
2023-04-12T13:54:06.119Z,15.80
2023-04-12T13:55:08.314Z,15.90
2023-04-12T13:56:11.743Z,15.80
2023-04-12T13:57:13.247Z,15.80
2023-04-12T13:58:14.631Z,15.80
2023-04-12T13:59:16.058Z,15.70
2023-04-12T14:00:18.608Z,15.70
2023-04-12T14:01:23.392Z,15.80
2023-04-12T14:02:25.889Z,15.80
2023-04-12T14:03:27.418Z,15.90
2023-04-12T14:04:30.527Z,15.90
2023-04-12T14:05:32.013Z,15.90
2023-04-12T14:06:33.680Z,15.90
2023-04-12T14:07:35.669Z,15.80